sensor_id;sensor_type;location;lat;lon;timestamp;P1;durP1;ratioP1;P2;durP2;ratioP2
68614;SDS011;55593;51.994;5.882;2022-08-20T00:00:38;18.13;;;12.48;;
68614;SDS011;55593;51.994;5.882;2022-08-20T00:03:13;18.55;;;12.57;;
68614;SDS011;55593;51.994;5.882;2022-08-20T00:05:46;17.02;;;12.23;;
68614;SDS011;55593;51.994;5.882;2022-08-20T00:08:17;18.70;;;12.52;;
68614;SDS011;55593;51.994;5.882;2022-08-20T00:10:47;21.38;;;11.88;;
68614;SDS011;55593;51.994;5.882;2022-08-20T00:13:22;17.02;;;13.13;;
68614;SDS011;55593;51.994;5.882;2022-08-20T00:15:59;17.90;;;12.90;;
68614;SDS011;55593;51.994;5.882;2022-08-20T00:18:31;20.58;;;14.23;;
68614;SDS011;55593;51.994;5.882;2022-08-20T00:21:02;20.00;;;11.93;;
68614;SDS011;55593;51.994;5.882;2022-08-20T00:23:34;17.77;;;13.52;;
68614;SDS011;55593;51.994;5.882;2022-08-20T00:26:04;22.10;;;15.00;;
68614;SDS011;55593;51.994;5.882;2022-08-20T00:28:35;19.80;;;13.82;;
68614;SDS011;55593;51.994;5.882;2022-08-20T00:31:05;19.80;;;13.50;;
68614;SDS011;55593;51.994;5.882;2022-08-20T00:33:40;18.88;;;13.40;;
68614;SDS011;55593;51.994;5.882;2022-08-20T00:36:09;20.35;;;14.75;;
68614;SDS011;55593;51.994;5.882;2022-08-20T00:38:41;19.90;;;13.30;;
68614;SDS011;55593;51.994;5.882;2022-08-20T00:41:14;20.35;;;14.38;;
68614;SDS011;55593;51.994;5.882;2022-08-20T00:43:45;20.83;;;13.60;;
68614;SDS011;55593;51.994;5.882;2022-08-20T00:46:17;19.55;;;13.68;;
68614;SDS011;55593;51.994;5.882;2022-08-20T00:48:51;21.55;;;14.73;;
68614;SDS011;55593;51.994;5.882;2022-08-20T00:51:24;20.80;;;14.70;;
68614;SDS011;55593;51.994;5.882;2022-08-20T00:53:57;20.38;;;14.48;;
68614;SDS011;55593;51.994;5.882;2022-08-20T00:59:01;21.83;;;14.50;;
68614;SDS011;55593;51.994;5.882;2022-08-20T01:01:36;19.48;;;13.30;;
68614;SDS011;55593;51.994;5.882;2022-08-20T01:04:08;25.98;;;16.30;;
68614;SDS011;55593;51.994;5.882;2022-08-20T01:06:37;23.67;;;15.18;;
68614;SDS011;55593;51.994;5.882;2022-08-20T01:09:07;21.02;;;15.10;;
68614;SDS011;55593;51.994;5.882;2022-08-20T01:11:36;20.15;;;15.07;;
68614;SDS011;55593;51.994;5.882;2022-08-20T01:14:08;22.30;;;15.55;;
68614;SDS011;55593;51.994;5.882;2022-08-20T01:16:50;22.42;;;14.18;;
68614;SDS011;55593;51.994;5.882;2022-08-20T01:19:26;21.80;;;14.70;;
68614;SDS011;55593;51.994;5.882;2022-08-20T01:21:57;18.58;;;13.93;;
68614;SDS011;55593;51.994;5.882;2022-08-20T01:24:30;20.83;;;14.98;;
68614;SDS011;55593;51.994;5.882;2022-08-20T01:27:03;21.02;;;14.02;;
68614;SDS011;55593;51.994;5.882;2022-08-20T01:29:34;19.70;;;13.25;;
68614;SDS011;55593;51.994;5.882;2022-08-20T01:32:05;21.23;;;15.60;;
68614;SDS011;55593;51.994;5.882;2022-08-20T01:34:34;21.77;;;15.40;;
68614;SDS011;55593;51.994;5.882;2022-08-20T01:37:04;22.65;;;14.80;;
68614;SDS011;55593;51.994;5.882;2022-08-20T01:39:34;21.70;;;14.73;;
68614;SDS011;55593;51.994;5.882;2022-08-20T01:42:10;16.55;;;12.07;;
68614;SDS011;55593;51.994;5.882;2022-08-20T01:44:44;21.52;;;13.30;;
68614;SDS011;55593;51.994;5.882;2022-08-20T01:47:16;17.77;;;12.82;;
68614;SDS011;55593;51.994;5.882;2022-08-20T01:49:49;16.60;;;11.85;;
68614;SDS011;55593;51.994;5.882;2022-08-20T01:52:21;17.95;;;13.20;;
68614;SDS011;55593;51.994;5.882;2022-08-20T01:55:04;18.42;;;11.60;;
68614;SDS011;55593;51.994;5.882;2022-08-20T01:57:36;15.70;;;11.05;;
68614;SDS011;55593;51.994;5.882;2022-08-20T02:00:07;15.88;;;11.75;;
68614;SDS011;55593;51.994;5.882;2022-08-20T02:02:40;16.70;;;11.52;;
68614;SDS011;55593;51.994;5.882;2022-08-20T02:05:09;19.33;;;13.00;;
68614;SDS011;55593;51.994;5.882;2022-08-20T02:07:39;18.90;;;12.85;;
68614;SDS011;55593;51.994;5.882;2022-08-20T02:10:09;17.88;;;13.00;;
68614;SDS011;55593;51.994;5.882;2022-08-20T02:12:42;19.23;;;12.85;;
68614;SDS011;55593;51.994;5.882;2022-08-20T02:15:12;16.98;;;12.15;;
68614;SDS011;55593;51.994;5.882;2022-08-20T02:17:41;20.90;;;13.55;;
68614;SDS011;55593;51.994;5.882;2022-08-20T02:20:11;16.83;;;12.40;;
68614;SDS011;55593;51.994;5.882;2022-08-20T02:22:43;21.00;;;12.88;;
68614;SDS011;55593;51.994;5.882;2022-08-20T02:25:14;18.98;;;13.85;;
68614;SDS011;55593;51.994;5.882;2022-08-20T02:27:48;18.25;;;13.43;;
68614;SDS011;55593;51.994;5.882;2022-08-20T02:30:19;22.42;;;14.13;;
68614;SDS011;55593;51.994;5.882;2022-08-20T02:32:50;19.27;;;13.68;;
68614;SDS011;55593;51.994;5.882;2022-08-20T02:35:19;18.40;;;12.40;;
68614;SDS011;55593;51.994;5.882;2022-08-20T02:37:49;19.85;;;13.82;;
68614;SDS011;55593;51.994;5.882;2022-08-20T02:40:20;15.43;;;12.30;;
68614;SDS011;55593;51.994;5.882;2022-08-20T02:42:53;21.00;;;14.40;;
68614;SDS011;55593;51.994;5.882;2022-08-20T02:45:22;24.33;;;14.15;;
68614;SDS011;55593;51.994;5.882;2022-08-20T02:47:52;20.55;;;14.40;;
68614;SDS011;55593;51.994;5.882;2022-08-20T02:50:22;16.38;;;12.63;;
68614;SDS011;55593;51.994;5.882;2022-08-20T02:52:52;24.63;;;14.18;;
68614;SDS011;55593;51.994;5.882;2022-08-20T02:55:21;17.10;;;12.07;;
68614;SDS011;55593;51.994;5.882;2022-08-20T02:57:54;17.25;;;12.75;;
68614;SDS011;55593;51.994;5.882;2022-08-20T03:00:24;16.38;;;10.82;;
68614;SDS011;55593;51.994;5.882;2022-08-20T03:02:55;18.80;;;11.23;;
68614;SDS011;55593;51.994;5.882;2022-08-20T03:05:25;15.55;;;10.75;;
68614;SDS011;55593;51.994;5.882;2022-08-20T03:07:54;19.13;;;10.68;;
68614;SDS011;55593;51.994;5.882;2022-08-20T03:10:25;15.98;;;11.32;;
68614;SDS011;55593;51.994;5.882;2022-08-20T03:12:59;14.27;;;9.68;;
68614;SDS011;55593;51.994;5.882;2022-08-20T03:15:30;15.32;;;10.00;;
68614;SDS011;55593;51.994;5.882;2022-08-20T03:18:00;15.75;;;11.18;;
68614;SDS011;55593;51.994;5.882;2022-08-20T03:20:29;17.45;;;11.30;;
68614;SDS011;55593;51.994;5.882;2022-08-20T03:22:58;15.85;;;10.45;;
68614;SDS011;55593;51.994;5.882;2022-08-20T03:25:27;15.75;;;11.25;;
68614;SDS011;55593;51.994;5.882;2022-08-20T03:27:59;16.52;;;10.60;;
68614;SDS011;55593;51.994;5.882;2022-08-20T03:30:29;12.57;;;9.70;;
68614;SDS011;55593;51.994;5.882;2022-08-20T03:32:58;16.73;;;10.57;;
68614;SDS011;55593;51.994;5.882;2022-08-20T03:35:29;13.80;;;9.38;;
68614;SDS011;55593;51.994;5.882;2022-08-20T03:37:59;15.95;;;10.23;;
68614;SDS011;55593;51.994;5.882;2022-08-20T03:40:29;17.17;;;11.45;;
68614;SDS011;55593;51.994;5.882;2022-08-20T03:43:02;14.18;;;10.82;;
68614;SDS011;55593;51.994;5.882;2022-08-20T03:45:32;14.50;;;11.07;;
68614;SDS011;55593;51.994;5.882;2022-08-20T03:48:02;17.83;;;11.50;;
68614;SDS011;55593;51.994;5.882;2022-08-20T03:50:33;18.58;;;10.82;;
68614;SDS011;55593;51.994;5.882;2022-08-20T03:53:03;17.17;;;12.13;;
68614;SDS011;55593;51.994;5.882;2022-08-20T03:55:32;15.73;;;11.15;;
68614;SDS011;55593;51.994;5.882;2022-08-20T03:58:05;16.75;;;11.25;;
68614;SDS011;55593;51.994;5.882;2022-08-20T04:00:37;15.40;;;10.90;;
68614;SDS011;55593;51.994;5.882;2022-08-20T04:03:08;15.68;;;11.45;;
68614;SDS011;55593;51.994;5.882;2022-08-20T04:05:37;18.70;;;12.27;;
68614;SDS011;55593;51.994;5.882;2022-08-20T04:08:08;14.68;;;10.02;;
68614;SDS011;55593;51.994;5.882;2022-08-20T04:10:40;16.00;;;9.63;;
68614;SDS011;55593;51.994;5.882;2022-08-20T04:13:13;15.98;;;9.75;;
68614;SDS011;55593;51.994;5.882;2022-08-20T04:15:43;15.27;;;11.25;;
68614;SDS011;55593;51.994;5.882;2022-08-20T04:18:13;12.65;;;9.93;;
68614;SDS011;55593;51.994;5.882;2022-08-20T04:20:45;13.70;;;9.55;;
68614;SDS011;55593;51.994;5.882;2022-08-20T04:23:15;14.73;;;9.77;;
68614;SDS011;55593;51.994;5.882;2022-08-20T04:25:44;13.98;;;9.98;;
68614;SDS011;55593;51.994;5.882;2022-08-20T04:28:17;18.38;;;9.68;;
68614;SDS011;55593;51.994;5.882;2022-08-20T04:30:49;13.30;;;9.32;;
68614;SDS011;55593;51.994;5.882;2022-08-20T04:33:19;12.52;;;9.20;;
68614;SDS011;55593;51.994;5.882;2022-08-20T04:35:49;11.45;;;8.98;;
68614;SDS011;55593;51.994;5.882;2022-08-20T04:38:20;12.82;;;9.25;;
68614;SDS011;55593;51.994;5.882;2022-08-20T04:40:50;14.95;;;10.23;;
68614;SDS011;55593;51.994;5.882;2022-08-20T04:43:28;12.95;;;9.57;;
68614;SDS011;55593;51.994;5.882;2022-08-20T04:45:59;15.85;;;9.93;;
68614;SDS011;55593;51.994;5.882;2022-08-20T04:48:31;15.57;;;10.23;;
68614;SDS011;55593;51.994;5.882;2022-08-20T04:51:00;43.90;;;15.88;;
68614;SDS011;55593;51.994;5.882;2022-08-20T04:53:30;24.08;;;12.52;;
68614;SDS011;55593;51.994;5.882;2022-08-20T04:55:59;17.80;;;12.82;;
68614;SDS011;55593;51.994;5.882;2022-08-20T04:58:33;96.28;;;22.13;;
68614;SDS011;55593;51.994;5.882;2022-08-20T05:01:04;21.38;;;12.02;;
68614;SDS011;55593;51.994;5.882;2022-08-20T05:03:35;26.50;;;13.43;;
68614;SDS011;55593;51.994;5.882;2022-08-20T05:06:05;22.35;;;12.00;;
68614;SDS011;55593;51.994;5.882;2022-08-20T05:08:35;21.67;;;12.35;;
68614;SDS011;55593;51.994;5.882;2022-08-20T05:11:05;19.60;;;11.80;;
68614;SDS011;55593;51.994;5.882;2022-08-20T05:13:37;16.70;;;12.20;;
68614;SDS011;55593;51.994;5.882;2022-08-20T05:16:07;19.05;;;12.52;;
68614;SDS011;55593;51.994;5.882;2022-08-20T05:18:37;16.65;;;11.15;;
68614;SDS011;55593;51.994;5.882;2022-08-20T05:21:06;19.95;;;12.00;;
68614;SDS011;55593;51.994;5.882;2022-08-20T05:23:36;18.75;;;12.70;;
68614;SDS011;55593;51.994;5.882;2022-08-20T05:26:07;15.90;;;7.65;;
68614;SDS011;55593;51.994;5.882;2022-08-20T05:28:40;14.55;;;8.27;;
68614;SDS011;55593;51.994;5.882;2022-08-20T05:31:10;18.00;;;9.50;;
68614;SDS011;55593;51.994;5.882;2022-08-20T05:33:40;13.90;;;8.52;;
68614;SDS011;55593;51.994;5.882;2022-08-20T05:36:09;14.07;;;9.23;;
68614;SDS011;55593;51.994;5.882;2022-08-20T05:38:39;17.20;;;8.80;;
68614;SDS011;55593;51.994;5.882;2022-08-20T05:41:08;13.95;;;8.68;;
68614;SDS011;55593;51.994;5.882;2022-08-20T05:43:40;14.25;;;9.15;;
68614;SDS011;55593;51.994;5.882;2022-08-20T05:46:10;18.92;;;8.65;;
68614;SDS011;55593;51.994;5.882;2022-08-20T05:48:41;14.00;;;9.98;;
68614;SDS011;55593;51.994;5.882;2022-08-20T05:51:10;17.48;;;10.73;;
68614;SDS011;55593;51.994;5.882;2022-08-20T05:53:40;13.80;;;10.63;;
68614;SDS011;55593;51.994;5.882;2022-08-20T05:56:09;15.00;;;10.35;;
68614;SDS011;55593;51.994;5.882;2022-08-20T05:58:41;15.73;;;10.52;;
68614;SDS011;55593;51.994;5.882;2022-08-20T06:01:10;15.65;;;11.10;;
68614;SDS011;55593;51.994;5.882;2022-08-20T06:03:39;15.23;;;10.55;;
68614;SDS011;55593;51.994;5.882;2022-08-20T06:06:21;13.50;;;9.77;;
68614;SDS011;55593;51.994;5.882;2022-08-20T06:08:50;15.05;;;8.75;;
68614;SDS011;55593;51.994;5.882;2022-08-20T06:11:19;16.50;;;9.07;;
68614;SDS011;55593;51.994;5.882;2022-08-20T06:13:51;15.23;;;10.15;;
68614;SDS011;55593;51.994;5.882;2022-08-20T06:16:20;12.60;;;9.27;;
68614;SDS011;55593;51.994;5.882;2022-08-20T06:18:49;11.13;;;8.85;;
68614;SDS011;55593;51.994;5.882;2022-08-20T06:21:19;14.23;;;7.82;;
68614;SDS011;55593;51.994;5.882;2022-08-20T06:23:48;10.13;;;7.40;;
68614;SDS011;55593;51.994;5.882;2022-08-20T06:26:17;11.43;;;7.90;;
68614;SDS011;55593;51.994;5.882;2022-08-20T06:28:46;15.27;;;8.77;;
68614;SDS011;55593;51.994;5.882;2022-08-20T06:31:18;15.52;;;9.02;;
68614;SDS011;55593;51.994;5.882;2022-08-20T06:33:47;14.90;;;9.07;;
68614;SDS011;55593;51.994;5.882;2022-08-20T06:36:16;14.82;;;8.50;;
68614;SDS011;55593;51.994;5.882;2022-08-20T06:38:45;12.18;;;8.30;;
68614;SDS011;55593;51.994;5.882;2022-08-20T06:41:14;16.33;;;8.30;;
68614;SDS011;55593;51.994;5.882;2022-08-20T06:43:44;15.82;;;9.25;;
68614;SDS011;55593;51.994;5.882;2022-08-20T06:46:13;18.27;;;8.68;;
68614;SDS011;55593;51.994;5.882;2022-08-20T06:48:44;11.18;;;7.32;;
68614;SDS011;55593;51.994;5.882;2022-08-20T06:51:14;19.45;;;8.38;;
68614;SDS011;55593;51.994;5.882;2022-08-20T06:53:43;14.95;;;7.80;;
68614;SDS011;55593;51.994;5.882;2022-08-20T06:56:12;14.40;;;8.35;;
68614;SDS011;55593;51.994;5.882;2022-08-20T06:58:41;15.73;;;8.32;;
68614;SDS011;55593;51.994;5.882;2022-08-20T07:01:11;15.35;;;8.63;;
68614;SDS011;55593;51.994;5.882;2022-08-20T07:03:41;15.95;;;8.55;;
68614;SDS011;55593;51.994;5.882;2022-08-20T07:06:13;14.68;;;8.82;;
68614;SDS011;55593;51.994;5.882;2022-08-20T07:08:42;11.48;;;9.25;;
68614;SDS011;55593;51.994;5.882;2022-08-20T07:11:12;17.58;;;9.55;;
68614;SDS011;55593;51.994;5.882;2022-08-20T07:13:41;15.38;;;10.13;;
68614;SDS011;55593;51.994;5.882;2022-08-20T07:16:10;22.65;;;9.27;;
68614;SDS011;55593;51.994;5.882;2022-08-20T07:18:39;14.20;;;6.43;;
68614;SDS011;55593;51.994;5.882;2022-08-20T07:21:09;11.15;;;6.20;;
68614;SDS011;55593;51.994;5.882;2022-08-20T07:23:40;9.43;;;5.47;;
68614;SDS011;55593;51.994;5.882;2022-08-20T07:26:10;9.75;;;5.97;;
68614;SDS011;55593;51.994;5.882;2022-08-20T07:28:39;12.15;;;6.18;;
68614;SDS011;55593;51.994;5.882;2022-08-20T07:31:08;12.23;;;6.85;;
68614;SDS011;55593;51.994;5.882;2022-08-20T07:33:50;15.98;;;7.35;;
68614;SDS011;55593;51.994;5.882;2022-08-20T07:36:19;10.27;;;5.85;;
68614;SDS011;55593;51.994;5.882;2022-08-20T07:38:52;15.98;;;7.03;;
68614;SDS011;55593;51.994;5.882;2022-08-20T07:41:21;11.85;;;6.65;;
68614;SDS011;55593;51.994;5.882;2022-08-20T07:43:50;12.93;;;7.43;;
68614;SDS011;55593;51.994;5.882;2022-08-20T07:46:19;13.27;;;7.05;;
68614;SDS011;55593;51.994;5.882;2022-08-20T07:48:49;14.60;;;5.65;;
68614;SDS011;55593;51.994;5.882;2022-08-20T07:51:19;12.13;;;5.05;;
68614;SDS011;55593;51.994;5.882;2022-08-20T07:53:51;11.45;;;5.32;;
68614;SDS011;55593;51.994;5.882;2022-08-20T07:56:22;11.38;;;5.32;;
68614;SDS011;55593;51.994;5.882;2022-08-20T07:58:52;10.25;;;4.43;;
68614;SDS011;55593;51.994;5.882;2022-08-20T08:01:24;12.88;;;4.53;;
68614;SDS011;55593;51.994;5.882;2022-08-20T08:03:55;18.95;;;5.18;;
68614;SDS011;55593;51.994;5.882;2022-08-20T08:06:24;14.55;;;3.97;;
68614;SDS011;55593;51.994;5.882;2022-08-20T08:08:57;11.48;;;4.53;;
68614;SDS011;55593;51.994;5.882;2022-08-20T08:11:30;14.88;;;4.40;;
68614;SDS011;55593;51.994;5.882;2022-08-20T08:14:02;16.73;;;4.75;;
68614;SDS011;55593;51.994;5.882;2022-08-20T08:16:32;14.52;;;3.85;;
68614;SDS011;55593;51.994;5.882;2022-08-20T08:19:02;13.00;;;3.53;;
68614;SDS011;55593;51.994;5.882;2022-08-20T08:21:34;12.45;;;3.50;;
68614;SDS011;55593;51.994;5.882;2022-08-20T08:24:09;18.08;;;4.10;;
68614;SDS011;55593;51.994;5.882;2022-08-20T08:26:39;12.63;;;4.07;;
68614;SDS011;55593;51.994;5.882;2022-08-20T08:29:08;14.63;;;3.45;;
68614;SDS011;55593;51.994;5.882;2022-08-20T08:31:38;11.07;;;3.08;;
68614;SDS011;55593;51.994;5.882;2022-08-20T08:34:08;12.30;;;3.13;;
68614;SDS011;55593;51.994;5.882;2022-08-20T08:36:37;15.85;;;3.30;;
68614;SDS011;55593;51.994;5.882;2022-08-20T08:39:11;21.77;;;4.07;;
68614;SDS011;55593;51.994;5.882;2022-08-20T08:41:41;10.10;;;3.28;;
68614;SDS011;55593;51.994;5.882;2022-08-20T08:44:15;10.20;;;3.28;;
68614;SDS011;55593;51.994;5.882;2022-08-20T08:46:49;14.50;;;3.47;;
68614;SDS011;55593;51.994;5.882;2022-08-20T08:49:22;11.50;;;3.15;;
68614;SDS011;55593;51.994;5.882;2022-08-20T08:51:55;13.02;;;3.78;;
68614;SDS011;55593;51.994;5.882;2022-08-20T08:54:28;14.60;;;3.83;;
68614;SDS011;55593;51.994;5.882;2022-08-20T08:56:58;17.77;;;4.13;;
68614;SDS011;55593;51.994;5.882;2022-08-20T08:59:28;14.18;;;3.97;;
68614;SDS011;55593;51.994;5.882;2022-08-20T09:01:58;14.13;;;3.50;;
68614;SDS011;55593;51.994;5.882;2022-08-20T09:04:30;16.40;;;3.70;;
68614;SDS011;55593;51.994;5.882;2022-08-20T09:07:01;13.88;;;3.65;;
68614;SDS011;55593;51.994;5.882;2022-08-20T09:09:34;12.60;;;3.28;;
68614;SDS011;55593;51.994;5.882;2022-08-20T09:12:07;15.07;;;3.17;;
68614;SDS011;55593;51.994;5.882;2022-08-20T09:14:38;11.30;;;3.60;;
68614;SDS011;55593;51.994;5.882;2022-08-20T09:17:08;10.07;;;3.20;;
68614;SDS011;55593;51.994;5.882;2022-08-20T09:19:37;10.70;;;3.22;;
68614;SDS011;55593;51.994;5.882;2022-08-20T09:22:06;13.35;;;4.07;;
68614;SDS011;55593;51.994;5.882;2022-08-20T09:24:39;14.63;;;4.47;;
68614;SDS011;55593;51.994;5.882;2022-08-20T09:27:09;13.07;;;3.38;;
68614;SDS011;55593;51.994;5.882;2022-08-20T09:29:38;12.70;;;3.50;;
68614;SDS011;55593;51.994;5.882;2022-08-20T09:32:09;14.60;;;2.90;;
68614;SDS011;55593;51.994;5.882;2022-08-20T09:34:41;15.48;;;2.85;;
68614;SDS011;55593;51.994;5.882;2022-08-20T09:37:11;12.18;;;3.13;;
68614;SDS011;55593;51.994;5.882;2022-08-20T09:39:43;11.98;;;4.15;;
68614;SDS011;55593;51.994;5.882;2022-08-20T09:42:13;11.95;;;3.78;;
68614;SDS011;55593;51.994;5.882;2022-08-20T09:44:44;17.83;;;3.92;;
68614;SDS011;55593;51.994;5.882;2022-08-20T09:47:13;17.70;;;3.03;;
68614;SDS011;55593;51.994;5.882;2022-08-20T09:49:43;10.23;;;3.65;;
68614;SDS011;55593;51.994;5.882;2022-08-20T09:52:16;10.75;;;2.88;;
68614;SDS011;55593;51.994;5.882;2022-08-20T09:54:50;11.90;;;3.78;;
68614;SDS011;55593;51.994;5.882;2022-08-20T09:57:20;14.30;;;3.85;;
68614;SDS011;55593;51.994;5.882;2022-08-20T09:59:50;13.85;;;3.85;;
68614;SDS011;55593;51.994;5.882;2022-08-20T10:02:27;13.02;;;3.22;;
68614;SDS011;55593;51.994;5.882;2022-08-20T10:04:56;16.15;;;3.70;;
68614;SDS011;55593;51.994;5.882;2022-08-20T10:07:25;14.38;;;3.20;;
68614;SDS011;55593;51.994;5.882;2022-08-20T10:09:58;11.73;;;3.22;;
68614;SDS011;55593;51.994;5.882;2022-08-20T10:12:27;10.43;;;2.72;;
68614;SDS011;55593;51.994;5.882;2022-08-20T10:14:56;13.85;;;3.65;;
68614;SDS011;55593;51.994;5.882;2022-08-20T10:17:25;10.18;;;2.60;;
68614;SDS011;55593;51.994;5.882;2022-08-20T10:19:54;12.18;;;3.15;;
68614;SDS011;55593;51.994;5.882;2022-08-20T10:22:24;11.20;;;3.55;;
68614;SDS011;55593;51.994;5.882;2022-08-20T10:24:53;13.48;;;2.63;;
68614;SDS011;55593;51.994;5.882;2022-08-20T10:27:24;9.32;;;2.58;;
68614;SDS011;55593;51.994;5.882;2022-08-20T10:29:54;11.32;;;3.00;;
68614;SDS011;55593;51.994;5.882;2022-08-20T10:32:23;14.05;;;2.90;;
68614;SDS011;55593;51.994;5.882;2022-08-20T10:34:52;17.63;;;3.22;;
68614;SDS011;55593;51.994;5.882;2022-08-20T10:37:22;12.52;;;3.60;;
68614;SDS011;55593;51.994;5.882;2022-08-20T10:39:52;11.75;;;2.38;;
68614;SDS011;55593;51.994;5.882;2022-08-20T10:42:22;12.27;;;2.67;;
68614;SDS011;55593;51.994;5.882;2022-08-20T10:44:53;10.10;;;2.72;;
68614;SDS011;55593;51.994;5.882;2022-08-20T10:47:24;11.43;;;2.75;;
68614;SDS011;55593;51.994;5.882;2022-08-20T10:49:55;9.35;;;2.17;;
68614;SDS011;55593;51.994;5.882;2022-08-20T10:52:26;13.27;;;2.55;;
68614;SDS011;55593;51.994;5.882;2022-08-20T10:54:55;9.05;;;2.80;;
68614;SDS011;55593;51.994;5.882;2022-08-20T10:57:28;14.60;;;2.60;;
68614;SDS011;55593;51.994;5.882;2022-08-20T11:00:00;10.05;;;2.63;;
68614;SDS011;55593;51.994;5.882;2022-08-20T11:02:29;10.85;;;2.28;;
68614;SDS011;55593;51.994;5.882;2022-08-20T11:04:59;13.02;;;2.63;;
68614;SDS011;55593;51.994;5.882;2022-08-20T11:07:29;10.55;;;2.97;;
68614;SDS011;55593;51.994;5.882;2022-08-20T11:10:00;8.25;;;2.63;;
68614;SDS011;55593;51.994;5.882;2022-08-20T11:12:31;12.15;;;2.30;;
68614;SDS011;55593;51.994;5.882;2022-08-20T11:15:01;13.52;;;2.50;;
68614;SDS011;55593;51.994;5.882;2022-08-20T11:17:31;9.75;;;2.28;;
68614;SDS011;55593;51.994;5.882;2022-08-20T11:20:02;10.48;;;2.38;;
68614;SDS011;55593;51.994;5.882;2022-08-20T11:22:33;9.93;;;2.38;;
68614;SDS011;55593;51.994;5.882;2022-08-20T11:25:02;11.43;;;2.65;;
68614;SDS011;55593;51.994;5.882;2022-08-20T11:27:35;9.20;;;2.38;;
68614;SDS011;55593;51.994;5.882;2022-08-20T11:30:07;14.20;;;2.85;;
68614;SDS011;55593;51.994;5.882;2022-08-20T11:32:39;9.63;;;2.38;;
68614;SDS011;55593;51.994;5.882;2022-08-20T11:35:08;5.32;;;2.00;;
68614;SDS011;55593;51.994;5.882;2022-08-20T11:37:38;12.43;;;2.50;;
68614;SDS011;55593;51.994;5.882;2022-08-20T11:40:08;11.38;;;2.35;;
68614;SDS011;55593;51.994;5.882;2022-08-20T11:42:41;10.30;;;2.35;;
68614;SDS011;55593;51.994;5.882;2022-08-20T11:45:10;8.50;;;2.38;;
68614;SDS011;55593;51.994;5.882;2022-08-20T11:47:39;11.57;;;2.50;;
68614;SDS011;55593;51.994;5.882;2022-08-20T11:50:09;8.48;;;2.35;;
68614;SDS011;55593;51.994;5.882;2022-08-20T11:52:40;8.40;;;2.00;;
68614;SDS011;55593;51.994;5.882;2022-08-20T11:55:10;10.52;;;2.38;;
68614;SDS011;55593;51.994;5.882;2022-08-20T11:57:44;6.28;;;1.90;;
68614;SDS011;55593;51.994;5.882;2022-08-20T12:00:16;12.23;;;3.20;;
68614;SDS011;55593;51.994;5.882;2022-08-20T12:02:47;7.72;;;2.15;;
68614;SDS011;55593;51.994;5.882;2022-08-20T12:05:17;9.38;;;2.13;;
68614;SDS011;55593;51.994;5.882;2022-08-20T12:07:46;11.18;;;2.70;;
68614;SDS011;55593;51.994;5.882;2022-08-20T12:10:15;12.57;;;2.58;;
68614;SDS011;55593;51.994;5.882;2022-08-20T12:12:47;9.77;;;2.75;;
68614;SDS011;55593;51.994;5.882;2022-08-20T12:15:16;13.10;;;3.33;;
68614;SDS011;55593;51.994;5.882;2022-08-20T12:17:45;8.70;;;2.53;;
68614;SDS011;55593;51.994;5.882;2022-08-20T12:20:15;11.18;;;2.55;;
68614;SDS011;55593;51.994;5.882;2022-08-20T12:22:44;11.73;;;3.95;;
68614;SDS011;55593;51.994;5.882;2022-08-20T12:25:13;13.25;;;2.50;;
68614;SDS011;55593;51.994;5.882;2022-08-20T12:27:42;12.77;;;2.85;;
68614;SDS011;55593;51.994;5.882;2022-08-20T12:30:16;8.00;;;2.05;;
68614;SDS011;55593;51.994;5.882;2022-08-20T12:32:47;11.75;;;3.25;;
68614;SDS011;55593;51.994;5.882;2022-08-20T12:35:17;12.25;;;2.83;;
68614;SDS011;55593;51.994;5.882;2022-08-20T12:37:47;9.57;;;2.45;;
68614;SDS011;55593;51.994;5.882;2022-08-20T12:40:17;8.80;;;2.35;;
68614;SDS011;55593;51.994;5.882;2022-08-20T12:42:47;10.80;;;3.13;;
68614;SDS011;55593;51.994;5.882;2022-08-20T12:45:19;12.20;;;2.30;;
68614;SDS011;55593;51.994;5.882;2022-08-20T12:47:49;11.38;;;2.35;;
68614;SDS011;55593;51.994;5.882;2022-08-20T12:50:19;7.68;;;2.10;;
68614;SDS011;55593;51.994;5.882;2022-08-20T12:52:50;14.15;;;2.95;;
68614;SDS011;55593;51.994;5.882;2022-08-20T12:55:19;15.43;;;2.65;;
68614;SDS011;55593;51.994;5.882;2022-08-20T12:57:49;9.10;;;2.50;;
68614;SDS011;55593;51.994;5.882;2022-08-20T13:00:22;9.90;;;2.45;;
68614;SDS011;55593;51.994;5.882;2022-08-20T13:02:55;8.68;;;2.50;;
68614;SDS011;55593;51.994;5.882;2022-08-20T13:05:25;10.80;;;2.40;;
68614;SDS011;55593;51.994;5.882;2022-08-20T13:07:55;10.70;;;2.58;;
68614;SDS011;55593;51.994;5.882;2022-08-20T13:10:26;8.85;;;2.30;;
68614;SDS011;55593;51.994;5.882;2022-08-20T13:12:57;8.82;;;2.45;;
68614;SDS011;55593;51.994;5.882;2022-08-20T13:15:30;11.48;;;2.60;;
68614;SDS011;55593;51.994;5.882;2022-08-20T13:18:01;13.10;;;3.20;;
68614;SDS011;55593;51.994;5.882;2022-08-20T13:20:31;7.82;;;2.40;;
68614;SDS011;55593;51.994;5.882;2022-08-20T13:23:00;8.85;;;2.50;;
68614;SDS011;55593;51.994;5.882;2022-08-20T13:25:31;8.43;;;2.28;;
68614;SDS011;55593;51.994;5.882;2022-08-20T13:28:01;14.73;;;3.20;;
68614;SDS011;55593;51.994;5.882;2022-08-20T13:30:34;9.55;;;2.58;;
68614;SDS011;55593;51.994;5.882;2022-08-20T13:33:05;7.90;;;2.30;;
68614;SDS011;55593;51.994;5.882;2022-08-20T13:35:34;10.48;;;2.72;;
68614;SDS011;55593;51.994;5.882;2022-08-20T13:38:04;9.52;;;2.90;;
68614;SDS011;55593;51.994;5.882;2022-08-20T13:40:33;7.40;;;2.13;;
68614;SDS011;55593;51.994;5.882;2022-08-20T13:43:02;13.25;;;3.28;;
68614;SDS011;55593;51.994;5.882;2022-08-20T13:45:35;14.13;;;3.88;;
68614;SDS011;55593;51.994;5.882;2022-08-20T13:48:04;10.00;;;2.20;;
68614;SDS011;55593;51.994;5.882;2022-08-20T13:50:34;11.68;;;2.80;;
68614;SDS011;55593;51.994;5.882;2022-08-20T13:53:03;12.18;;;2.65;;
68614;SDS011;55593;51.994;5.882;2022-08-20T13:55:33;9.70;;;2.90;;
68614;SDS011;55593;51.994;5.882;2022-08-20T13:58:03;8.38;;;2.85;;
68614;SDS011;55593;51.994;5.882;2022-08-20T14:00:35;11.10;;;2.80;;
68614;SDS011;55593;51.994;5.882;2022-08-20T14:03:05;10.15;;;2.47;;
68614;SDS011;55593;51.994;5.882;2022-08-20T14:05:35;12.75;;;2.58;;
68614;SDS011;55593;51.994;5.882;2022-08-20T14:08:05;11.70;;;2.50;;
68614;SDS011;55593;51.994;5.882;2022-08-20T14:10:36;10.05;;;2.63;;
68614;SDS011;55593;51.994;5.882;2022-08-20T14:13:06;7.55;;;2.33;;
68614;SDS011;55593;51.994;5.882;2022-08-20T14:15:38;11.85;;;3.00;;
68614;SDS011;55593;51.994;5.882;2022-08-20T14:18:07;13.88;;;2.47;;
68614;SDS011;55593;51.994;5.882;2022-08-20T14:20:36;8.35;;;2.92;;
68614;SDS011;55593;51.994;5.882;2022-08-20T14:23:06;10.18;;;2.70;;
68614;SDS011;55593;51.994;5.882;2022-08-20T14:25:35;12.30;;;3.17;;
68614;SDS011;55593;51.994;5.882;2022-08-20T14:28:07;10.30;;;2.55;;
68614;SDS011;55593;51.994;5.882;2022-08-20T14:30:41;9.52;;;3.13;;
68614;SDS011;55593;51.994;5.882;2022-08-20T14:33:10;10.73;;;2.22;;
68614;SDS011;55593;51.994;5.882;2022-08-20T14:35:39;9.75;;;2.42;;
68614;SDS011;55593;51.994;5.882;2022-08-20T14:38:08;9.27;;;2.55;;
68614;SDS011;55593;51.994;5.882;2022-08-20T14:40:37;10.57;;;2.95;;
68614;SDS011;55593;51.994;5.882;2022-08-20T14:43:07;12.20;;;2.38;;
68614;SDS011;55593;51.994;5.882;2022-08-20T14:45:36;8.85;;;2.72;;
68614;SDS011;55593;51.994;5.882;2022-08-20T14:48:07;8.80;;;2.20;;
68614;SDS011;55593;51.994;5.882;2022-08-20T14:50:37;13.15;;;3.10;;
68614;SDS011;55593;51.994;5.882;2022-08-20T14:53:06;11.73;;;2.85;;